createdAt,value
2023-03-03T00:00:08.125Z,0.00
2023-03-03T00:01:08.125Z,0.00
2023-03-03T00:02:08.142Z,0.00
2023-03-03T00:03:08.132Z,0.00
2023-03-03T00:04:08.013Z,0.00
2023-03-03T00:05:07.982Z,0.00
2023-03-03T00:06:07.959Z,0.00
2023-03-03T00:07:07.948Z,0.00
2023-03-03T00:08:07.902Z,0.00
2023-03-03T00:09:07.893Z,0.00
2023-03-03T00:10:07.871Z,0.00
2023-03-03T00:11:07.842Z,0.00
2023-03-03T00:12:07.789Z,0.00
2023-03-03T00:13:07.764Z,0.00
2023-03-03T00:14:07.744Z,0.00
2023-03-03T00:15:07.708Z,0.00
2023-03-03T00:16:07.705Z,0.00
2023-03-03T00:17:07.664Z,0.00
2023-03-03T00:18:07.627Z,0.00
2023-03-03T00:19:07.612Z,0.00
2023-03-03T00:20:07.568Z,0.00
2023-03-03T00:21:07.542Z,0.00
2023-03-03T00:22:07.516Z,0.00
2023-03-03T00:23:07.487Z,0.00
2023-03-03T00:24:07.464Z,0.00
2023-03-03T00:25:07.435Z,0.00
2023-03-03T00:26:07.481Z,0.00
2023-03-03T00:27:07.392Z,0.00
2023-03-03T00:28:07.352Z,0.00
2023-03-03T00:29:07.344Z,0.00
2023-03-03T00:30:07.299Z,0.00
2023-03-03T00:31:07.300Z,0.00
2023-03-03T00:32:07.298Z,0.00
2023-03-03T00:33:07.215Z,0.00
2023-03-03T00:34:07.198Z,0.00
2023-03-03T00:35:07.167Z,0.00
2023-03-03T00:36:07.136Z,0.00
2023-03-03T00:37:07.104Z,0.00
2023-03-03T00:38:07.078Z,0.00
2023-03-03T00:39:07.049Z,0.00
2023-03-03T00:40:07.028Z,0.00
2023-03-03T00:41:07.022Z,0.00
2023-03-03T00:42:06.981Z,0.00
2023-03-03T00:43:06.939Z,0.00
2023-03-03T00:44:06.933Z,0.00
2023-03-03T00:45:06.888Z,0.00
2023-03-03T00:46:06.871Z,0.00
2023-03-03T00:47:06.831Z,0.00
2023-03-03T00:48:06.806Z,0.00
2023-03-03T00:49:06.785Z,0.00
2023-03-03T00:50:06.756Z,0.00
2023-03-03T00:51:06.719Z,0.00
2023-03-03T00:52:06.694Z,0.00
2023-03-03T00:53:06.676Z,0.00
2023-03-03T00:54:06.638Z,0.00
2023-03-03T00:55:06.605Z,0.00
2023-03-03T00:56:06.585Z,0.00
2023-03-03T00:57:06.559Z,0.00
2023-03-03T00:58:06.536Z,0.00
2023-03-03T00:59:06.519Z,0.00
2023-03-03T01:00:06.486Z,0.00
2023-03-03T01:01:06.461Z,0.00
2023-03-03T01:02:06.421Z,0.00
2023-03-03T01:03:06.385Z,0.00
2023-03-03T01:04:06.364Z,0.00
2023-03-03T01:05:06.352Z,0.00
2023-03-03T01:06:06.308Z,0.00
2023-03-03T01:07:06.283Z,0.00
2023-03-03T01:08:06.258Z,0.00
2023-03-03T01:09:06.232Z,0.00
2023-03-03T01:10:06.198Z,0.00
2023-03-03T01:11:06.169Z,0.00
2023-03-03T01:12:06.143Z,0.00
2023-03-03T01:13:06.117Z,0.00
2023-03-03T01:14:06.110Z,0.00
2023-03-03T01:15:06.059Z,0.00
2023-03-03T01:16:06.124Z,0.00
2023-03-03T01:17:06.002Z,0.00
2023-03-03T01:18:05.991Z,0.00
2023-03-03T01:19:05.944Z,0.00
2023-03-03T01:20:05.924Z,0.00
2023-03-03T01:21:05.893Z,0.00
2023-03-03T01:22:05.870Z,0.00
2023-03-03T01:23:05.835Z,0.00
2023-03-03T01:24:05.808Z,0.00
2023-03-03T01:25:05.778Z,0.00
2023-03-03T01:26:05.767Z,0.00
2023-03-03T01:27:05.732Z,0.00
2023-03-03T01:28:05.720Z,0.00
2023-03-03T01:29:05.685Z,0.00
2023-03-03T01:30:05.679Z,0.00
2023-03-03T01:31:05.633Z,0.00
2023-03-03T01:32:05.630Z,0.00
2023-03-03T01:33:05.554Z,0.00
2023-03-03T01:34:05.534Z,0.00
2023-03-03T01:35:05.498Z,0.00
2023-03-03T01:36:05.480Z,0.00
2023-03-03T01:37:05.487Z,0.00
2023-03-03T01:38:05.424Z,0.00
2023-03-03T01:39:05.391Z,0.00
2023-03-03T01:40:05.369Z,0.00
2023-03-03T01:41:05.333Z,0.00
2023-03-03T01:42:05.330Z,0.00
2023-03-03T01:43:05.277Z,0.00
2023-03-03T01:44:05.255Z,0.00
2023-03-03T01:45:05.224Z,0.00
2023-03-03T01:46:05.258Z,0.00
2023-03-03T01:47:05.170Z,0.00
2023-03-03T01:48:05.157Z,0.00
2023-03-03T01:49:05.112Z,0.00
2023-03-03T01:50:05.096Z,0.00
2023-03-03T01:51:05.061Z,0.00
2023-03-03T01:52:05.057Z,0.00
2023-03-03T01:53:05.022Z,0.00
2023-03-03T01:54:04.984Z,0.00
2023-03-03T01:55:04.947Z,0.00
2023-03-03T01:56:04.959Z,0.00
2023-03-03T01:57:04.892Z,0.00
2023-03-03T01:58:04.866Z,0.00
2023-03-03T01:59:04.869Z,0.00
2023-03-03T02:00:04.810Z,0.00
2023-03-03T02:01:04.793Z,0.00
2023-03-03T02:02:04.927Z,0.00
2023-03-03T02:03:04.765Z,0.00
2023-03-03T02:04:04.704Z,0.00
2023-03-03T02:05:04.677Z,0.00
2023-03-03T02:06:04.653Z,0.00
2023-03-03T02:07:04.612Z,0.00
2023-03-03T02:08:04.591Z,0.00
2023-03-03T02:09:04.554Z,0.00
2023-03-03T02:10:04.545Z,0.00
2023-03-03T02:11:04.516Z,0.00
2023-03-03T02:12:04.483Z,0.00
2023-03-03T02:13:04.448Z,0.00
2023-03-03T02:14:04.429Z,0.00
2023-03-03T02:15:04.460Z,0.00
2023-03-03T02:16:04.385Z,0.00
2023-03-03T02:17:04.341Z,0.00
2023-03-03T02:18:04.326Z,0.00
2023-03-03T02:19:04.333Z,0.00
2023-03-03T02:20:04.264Z,0.00
2023-03-03T02:21:04.233Z,0.00
2023-03-03T02:22:04.209Z,0.00
2023-03-03T02:23:04.178Z,0.00
2023-03-03T02:24:04.165Z,0.00
2023-03-03T02:25:04.126Z,0.00
2023-03-03T02:26:04.101Z,0.00
2023-03-03T02:27:04.068Z,0.00
2023-03-03T02:28:04.047Z,0.00
2023-03-03T02:29:04.025Z,0.00
2023-03-03T02:30:04.001Z,0.00
2023-03-03T02:31:03.957Z,0.00
2023-03-03T02:32:04.063Z,0.00
2023-03-03T02:33:03.905Z,0.00
2023-03-03T02:34:03.873Z,0.00
2023-03-03T02:35:03.852Z,0.00
2023-03-03T02:36:03.821Z,0.00
2023-03-03T02:37:03.791Z,0.00
2023-03-03T02:38:03.763Z,0.00
2023-03-03T02:39:03.728Z,0.00
2023-03-03T02:40:03.735Z,0.00
2023-03-03T02:41:03.680Z,0.00
2023-03-03T02:42:03.663Z,0.00
2023-03-03T02:43:03.635Z,0.00
2023-03-03T02:44:03.630Z,0.00
2023-03-03T02:45:03.570Z,0.00
2023-03-03T02:46:03.560Z,0.00
2023-03-03T02:47:03.509Z,0.00
2023-03-03T02:48:03.486Z,0.00
2023-03-03T02:49:03.454Z,0.00
2023-03-03T02:50:03.461Z,0.00
2023-03-03T02:51:03.404Z,0.00
2023-03-03T02:52:03.386Z,0.00
2023-03-03T02:53:03.354Z,0.00
2023-03-03T02:54:03.427Z,0.00
2023-03-03T02:55:03.281Z,0.00
2023-03-03T02:56:03.319Z,0.00
2023-03-03T02:57:03.225Z,0.00
2023-03-03T02:58:03.202Z,0.00
2023-03-03T02:59:03.176Z,0.00
2023-03-03T03:00:03.170Z,0.00
2023-03-03T03:01:03.199Z,0.00
2023-03-03T03:02:03.081Z,0.00
2023-03-03T03:03:03.060Z,0.00
2023-03-03T03:04:03.050Z,0.00
2023-03-03T03:05:03.012Z,0.00
2023-03-03T03:06:02.991Z,0.00
2023-03-03T03:07:02.948Z,0.00
2023-03-03T03:08:02.917Z,0.00
2023-03-03T03:09:02.906Z,0.00
2023-03-03T03:10:02.874Z,0.00
2023-03-03T03:11:02.843Z,0.00
2023-03-03T03:12:02.808Z,0.00
2023-03-03T03:13:02.779Z,0.00
2023-03-03T03:14:02.755Z,0.00
2023-03-03T03:15:02.732Z,0.00
2023-03-03T03:16:02.699Z,0.00
2023-03-03T03:17:02.682Z,0.00
2023-03-03T03:18:02.642Z,0.00
2023-03-03T03:19:02.613Z,0.00
2023-03-03T03:20:02.592Z,0.00
2023-03-03T03:21:02.572Z,0.00
2023-03-03T03:22:02.534Z,0.00
2023-03-03T03:23:02.504Z,0.00
2023-03-03T03:24:02.484Z,0.00
2023-03-03T03:25:02.446Z,0.00
2023-03-03T03:26:02.419Z,0.00
2023-03-03T03:27:02.403Z,0.00
2023-03-03T03:28:02.364Z,0.00
2023-03-03T03:29:02.381Z,0.00
2023-03-03T03:30:02.307Z,0.00
2023-03-03T03:31:02.329Z,0.00
2023-03-03T03:32:02.289Z,0.00
2023-03-03T03:33:02.222Z,0.00
2023-03-03T03:34:02.185Z,0.00
2023-03-03T03:35:02.178Z,0.00
2023-03-03T03:36:02.132Z,0.00
2023-03-03T03:37:02.117Z,0.00
2023-03-03T03:38:02.104Z,0.00
2023-03-03T03:39:02.055Z,0.00
2023-03-03T03:40:02.021Z,0.00
2023-03-03T03:41:02.001Z,0.00
2023-03-03T03:42:01.963Z,0.00
2023-03-03T03:43:01.947Z,0.00
2023-03-03T03:44:01.936Z,0.00
2023-03-03T03:45:01.946Z,0.00
2023-03-03T03:46:01.893Z,0.00
2023-03-03T03:47:01.835Z,0.00
2023-03-03T03:48:01.798Z,0.00
2023-03-03T03:49:01.782Z,0.00
2023-03-03T03:50:01.751Z,0.00
2023-03-03T03:51:01.730Z,0.00
2023-03-03T03:52:01.687Z,0.00
2023-03-03T03:53:01.668Z,0.00
2023-03-03T03:54:01.635Z,0.00
2023-03-03T03:55:01.617Z,0.00
2023-03-03T03:56:01.571Z,0.00
2023-03-03T03:57:01.552Z,0.00
2023-03-03T03:58:01.556Z,0.00
2023-03-03T03:59:01.489Z,0.00
2023-03-03T04:00:01.465Z,0.00
2023-03-03T04:01:01.447Z,0.00
2023-03-03T04:02:01.435Z,0.00
2023-03-03T04:03:01.507Z,0.00
2023-03-03T04:04:01.353Z,0.00
2023-03-03T04:05:01.329Z,0.00
2023-03-03T04:06:01.302Z,0.00
2023-03-03T04:07:01.276Z,0.00
2023-03-03T04:08:01.271Z,0.00
2023-03-03T04:09:01.232Z,0.00
2023-03-03T04:10:01.186Z,0.00
2023-03-03T04:11:01.161Z,0.00
2023-03-03T04:12:01.134Z,0.00
2023-03-03T04:13:01.122Z,0.00
2023-03-03T04:14:01.075Z,0.00
2023-03-03T04:15:01.060Z,0.00
2023-03-03T04:16:01.067Z,0.00
2023-03-03T04:17:00.999Z,0.00
2023-03-03T04:18:00.968Z,0.00
2023-03-03T04:19:00.939Z,0.00
2023-03-03T04:20:00.912Z,0.00
2023-03-03T04:21:00.883Z,0.00
2023-03-03T04:22:00.854Z,0.00
2023-03-03T04:23:00.825Z,0.00
2023-03-03T04:24:00.794Z,0.00
2023-03-03T04:25:00.776Z,0.00
2023-03-03T04:26:00.738Z,0.00
2023-03-03T04:27:00.722Z,0.00
2023-03-03T04:28:00.682Z,0.00
2023-03-03T04:29:00.667Z,0.00
2023-03-03T04:30:00.624Z,0.00
2023-03-03T04:31:00.661Z,0.00
2023-03-03T04:32:00.610Z,0.00
2023-03-03T04:33:00.547Z,0.00
2023-03-03T04:34:00.518Z,0.00
2023-03-03T04:35:07.615Z,0.00
2023-03-03T04:36:00.453Z,0.00
2023-03-03T04:37:00.440Z,0.00
2023-03-03T04:38:00.408Z,0.00
2023-03-03T04:39:00.375Z,0.00
2023-03-03T04:40:00.465Z,0.00
2023-03-03T04:41:00.331Z,0.00
2023-03-03T04:42:00.312Z,0.00
2023-03-03T04:43:00.264Z,0.00
2023-03-03T04:44:00.256Z,0.00
2023-03-03T04:45:00.222Z,0.00
2023-03-03T04:46:00.257Z,0.00
2023-03-03T04:47:00.157Z,0.00
2023-03-03T04:48:00.128Z,0.00
2023-03-03T04:49:00.136Z,0.00
2023-03-03T04:50:00.071Z,0.00
2023-03-03T04:51:00.043Z,0.00
2023-03-03T04:52:00.006Z,0.00
2023-03-03T04:52:59.989Z,0.00
2023-03-03T04:53:59.951Z,0.00
2023-03-03T04:54:59.926Z,0.00
2023-03-03T04:55:59.903Z,0.00
2023-03-03T04:56:59.878Z,0.00
2023-03-03T04:57:59.845Z,0.00
2023-03-03T04:58:59.813Z,0.00
2023-03-03T04:59:59.784Z,0.00
2023-03-03T05:00:59.752Z,0.00
2023-03-03T05:01:59.743Z,0.00
2023-03-03T05:02:59.719Z,0.00
2023-03-03T05:03:59.680Z,0.00
2023-03-03T05:04:59.677Z,0.00
2023-03-03T05:05:59.610Z,0.00
2023-03-03T05:06:59.581Z,0.00
2023-03-03T05:07:59.617Z,0.00
2023-03-03T05:08:59.522Z,0.00
2023-03-03T05:09:59.491Z,0.00
2023-03-03T05:10:59.462Z,0.00
2023-03-03T05:11:59.441Z,0.00
2023-03-03T05:12:59.406Z,0.00
2023-03-03T05:13:59.377Z,0.00
2023-03-03T05:14:59.349Z,0.00
2023-03-03T05:15:59.364Z,0.00
2023-03-03T05:16:59.311Z,0.00
2023-03-03T05:17:59.269Z,0.00
2023-03-03T05:18:59.249Z,0.00
2023-03-03T05:19:59.227Z,0.00
2023-03-03T05:20:59.180Z,0.00
2023-03-03T05:21:59.157Z,0.00
2023-03-03T05:22:59.129Z,0.00
2023-03-03T05:23:59.094Z,0.00
2023-03-03T05:24:59.064Z,0.00
2023-03-03T05:25:59.029Z,0.00
2023-03-03T05:26:59.011Z,0.00
2023-03-03T05:27:58.977Z,0.00
2023-03-03T05:28:58.955Z,0.00
2023-03-03T05:29:58.918Z,0.00
2023-03-03T05:30:58.945Z,0.00
2023-03-03T05:31:58.926Z,0.00
2023-03-03T05:32:58.839Z,0.00
2023-03-03T05:33:58.821Z,0.00
2023-03-03T05:34:58.778Z,0.00
2023-03-03T05:35:58.753Z,0.00
2023-03-03T05:36:58.726Z,0.00
2023-03-03T05:37:58.693Z,0.00
2023-03-03T05:38:58.668Z,0.00
2023-03-03T05:39:58.627Z,0.00
2023-03-03T05:40:58.610Z,0.00
2023-03-03T05:41:58.574Z,0.00
2023-03-03T05:42:58.603Z,0.00
2023-03-03T05:43:58.521Z,0.00
2023-03-03T05:44:58.501Z,0.00
2023-03-03T05:45:58.519Z,0.00
2023-03-03T05:46:58.475Z,0.00
2023-03-03T05:47:58.420Z,0.00
2023-03-03T05:48:58.395Z,0.00
2023-03-03T05:49:58.360Z,0.00
2023-03-03T05:50:58.335Z,0.00
2023-03-03T05:51:58.296Z,0.00
2023-03-03T05:52:58.267Z,0.00
2023-03-03T05:53:58.237Z,0.00
2023-03-03T05:54:58.245Z,0.00
2023-03-03T05:55:58.175Z,0.00
2023-03-03T05:56:58.161Z,0.00
2023-03-03T05:57:58.129Z,0.00
2023-03-03T05:58:58.099Z,5.63
2023-03-03T05:59:58.061Z,5.63
2023-03-03T06:00:58.049Z,5.63
2023-03-03T06:01:58.064Z,5.63
2023-03-03T06:02:57.989Z,5.63
2023-03-03T06:03:57.950Z,5.63
2023-03-03T06:04:57.932Z,5.63
2023-03-03T06:05:57.900Z,5.63
2023-03-03T06:06:57.868Z,11.25
2023-03-03T06:07:57.839Z,11.25
2023-03-03T06:08:57.821Z,11.25
2023-03-03T06:09:57.782Z,11.25
2023-03-03T06:10:57.761Z,11.25
2023-03-03T06:11:57.729Z,16.88
2023-03-03T06:12:57.700Z,16.88
2023-03-03T06:13:57.671Z,16.88
2023-03-03T06:14:57.650Z,16.88
2023-03-03T06:15:57.618Z,22.50
2023-03-03T06:16:57.602Z,22.50
2023-03-03T06:17:57.565Z,22.50
2023-03-03T06:18:57.531Z,22.50
2023-03-03T06:19:57.500Z,28.13
2023-03-03T06:20:57.478Z,28.13
2023-03-03T06:22:00.333Z,28.13
2023-03-03T06:22:57.417Z,28.13
2023-03-03T06:23:57.390Z,33.75
2023-03-03T06:24:57.355Z,33.75
2023-03-03T06:25:57.349Z,33.75
2023-03-03T06:26:57.306Z,33.75
2023-03-03T06:27:57.272Z,39.38
2023-03-03T06:28:57.253Z,39.38
2023-03-03T06:29:57.222Z,39.38
2023-03-03T06:30:57.196Z,39.38
2023-03-03T06:31:57.263Z,45.00
2023-03-03T06:32:57.140Z,45.00
2023-03-03T06:33:57.107Z,45.00
2023-03-03T06:34:57.072Z,50.63
2023-03-03T06:35:57.074Z,50.63
2023-03-03T06:36:57.026Z,50.63
2023-03-03T06:37:56.983Z,50.63
2023-03-03T06:38:56.963Z,56.25
2023-03-03T06:39:56.927Z,56.25
2023-03-03T06:40:56.898Z,56.25
2023-03-03T06:41:56.871Z,56.25
2023-03-03T06:42:56.851Z,61.88
2023-03-03T06:43:56.811Z,61.88
2023-03-03T06:44:56.791Z,61.88
2023-03-03T06:45:57.904Z,61.88
2023-03-03T06:46:56.751Z,67.50
2023-03-03T06:47:56.709Z,67.50
2023-03-03T06:48:56.675Z,67.50
2023-03-03T06:49:56.648Z,73.13
2023-03-03T06:50:56.617Z,73.13
2023-03-03T06:51:56.606Z,73.13
2023-03-03T06:52:56.560Z,78.75
2023-03-03T06:53:56.532Z,78.75
2023-03-03T06:54:56.505Z,78.75
2023-03-03T06:55:56.479Z,78.75
2023-03-03T06:56:56.461Z,78.75
2023-03-03T06:57:56.418Z,84.38
2023-03-03T06:58:56.407Z,84.38
2023-03-03T06:59:56.369Z,84.38
2023-03-03T07:00:56.400Z,84.38
2023-03-03T07:01:56.312Z,90.00
2023-03-03T07:02:56.284Z,90.00
2023-03-03T07:03:56.307Z,90.00
2023-03-03T07:04:56.322Z,90.00
2023-03-03T07:05:56.202Z,95.63
2023-03-03T07:06:56.181Z,95.63
2023-03-03T07:07:56.149Z,95.63
2023-03-03T07:08:56.125Z,101.25
2023-03-03T07:09:56.112Z,101.25
2023-03-03T07:10:56.081Z,101.25
2023-03-03T07:11:56.036Z,106.88
2023-03-03T07:12:56.013Z,106.88
2023-03-03T07:13:55.995Z,106.88
2023-03-03T07:14:55.992Z,112.50
2023-03-03T07:15:55.936Z,112.50
2023-03-03T07:16:55.980Z,118.13
2023-03-03T07:17:55.880Z,123.75
2023-03-03T07:18:55.862Z,123.75
2023-03-03T07:19:55.904Z,135.00
2023-03-03T07:20:55.802Z,140.63
2023-03-03T07:21:55.774Z,157.50
2023-03-03T07:22:55.763Z,151.88
2023-03-03T07:23:55.725Z,151.88
2023-03-03T07:24:55.752Z,146.25
2023-03-03T07:25:55.691Z,135.00
2023-03-03T07:26:55.628Z,129.38
2023-03-03T07:27:55.606Z,140.63
2023-03-03T07:28:55.595Z,157.50
2023-03-03T07:29:55.554Z,163.13
2023-03-03T07:30:55.574Z,168.75
2023-03-03T07:31:55.542Z,168.75
2023-03-03T07:32:55.480Z,180.00
2023-03-03T07:33:55.453Z,168.75
2023-03-03T07:34:55.431Z,174.38
2023-03-03T07:35:55.458Z,180.00
2023-03-03T07:36:55.375Z,168.75
2023-03-03T07:37:55.369Z,163.13
2023-03-03T07:38:55.306Z,174.38
2023-03-03T07:39:55.289Z,168.75
2023-03-03T07:40:55.274Z,163.13
2023-03-03T07:41:55.258Z,168.75
2023-03-03T07:42:55.203Z,163.13
2023-03-03T07:43:55.174Z,163.13
2023-03-03T07:44:55.167Z,163.13
2023-03-03T07:45:55.208Z,168.75
2023-03-03T07:46:55.094Z,180.00
2023-03-03T07:47:55.078Z,185.63
2023-03-03T07:48:55.046Z,180.00
2023-03-03T07:49:55.021Z,180.00
2023-03-03T07:50:54.997Z,196.88
2023-03-03T07:51:54.971Z,196.88
2023-03-03T07:52:54.939Z,191.25
2023-03-03T07:53:54.922Z,196.88
2023-03-03T07:54:54.886Z,196.88
2023-03-03T07:55:54.869Z,208.13
2023-03-03T07:56:54.832Z,219.38
2023-03-03T07:57:54.812Z,225.00
2023-03-03T07:58:54.834Z,219.38
2023-03-03T07:59:54.761Z,213.75
2023-03-03T08:00:54.787Z,202.50
2023-03-03T08:01:54.709Z,213.75
2023-03-03T08:02:54.682Z,225.00
2023-03-03T08:03:54.711Z,213.75
2023-03-03T08:04:54.719Z,213.75
2023-03-03T08:05:54.610Z,219.38
2023-03-03T08:06:54.594Z,219.38
2023-03-03T08:07:54.555Z,236.25
2023-03-03T08:08:54.535Z,253.13
2023-03-03T08:09:54.517Z,247.50
2023-03-03T08:10:54.546Z,241.88
2023-03-03T08:11:54.445Z,241.88
2023-03-03T08:12:54.429Z,258.75
2023-03-03T08:13:54.391Z,258.75
2023-03-03T08:14:54.359Z,258.75
2023-03-03T08:15:54.362Z,264.38
2023-03-03T08:16:54.301Z,270.00
2023-03-03T08:17:54.290Z,270.00
2023-03-03T08:18:54.267Z,270.00
2023-03-03T08:19:54.256Z,264.38
2023-03-03T08:20:54.253Z,258.75
2023-03-03T08:21:54.189Z,258.75
2023-03-03T08:22:54.170Z,253.13
2023-03-03T08:23:54.135Z,264.38
2023-03-03T08:24:54.088Z,281.25
2023-03-03T08:25:54.361Z,275.63
2023-03-03T08:26:54.054Z,270.00
2023-03-03T08:27:54.028Z,270.00
2023-03-03T08:28:54.010Z,275.63
2023-03-03T08:29:53.977Z,292.50
2023-03-03T08:31:02.841Z,309.38
2023-03-03T08:31:53.996Z,286.88
2023-03-03T08:32:53.958Z,281.25
2023-03-03T08:33:53.860Z,270.00
2023-03-03T08:34:53.842Z,264.38
2023-03-03T08:35:53.834Z,281.25
2023-03-03T08:36:54.516Z,275.63
2023-03-03T08:37:54.532Z,281.25
2023-03-03T08:38:54.460Z,281.25
2023-03-03T08:39:54.457Z,292.50
2023-03-03T08:40:53.694Z,286.88
2023-03-03T08:41:53.683Z,281.25
2023-03-03T08:42:54.523Z,286.88
2023-03-03T08:43:53.617Z,281.25
2023-03-03T08:44:53.588Z,286.88
2023-03-03T08:45:53.561Z,292.50
2023-03-03T08:46:53.519Z,303.75
2023-03-03T08:47:53.504Z,309.38
2023-03-03T08:48:53.470Z,309.38
2023-03-03T08:49:53.474Z,315.00
2023-03-03T08:50:53.429Z,331.88
2023-03-03T08:51:53.403Z,348.75
2023-03-03T08:52:53.369Z,382.50
2023-03-03T08:53:53.348Z,405.00
2023-03-03T08:54:53.365Z,421.88
2023-03-03T08:55:53.307Z,421.88
2023-03-03T08:56:53.293Z,416.25
2023-03-03T08:57:53.257Z,399.38
2023-03-03T08:59:02.287Z,371.25
2023-03-03T08:59:53.231Z,354.38
2023-03-03T09:00:53.188Z,376.88
2023-03-03T09:01:53.192Z,382.50
2023-03-03T09:02:53.126Z,376.88
2023-03-03T09:03:53.100Z,360.00
2023-03-03T09:04:53.131Z,388.13
2023-03-03T09:05:53.049Z,438.75
2023-03-03T09:06:53.033Z,421.88
2023-03-03T09:07:53.024Z,393.75
2023-03-03T09:08:52.976Z,348.75
2023-03-03T09:09:52.960Z,337.50
2023-03-03T09:10:52.950Z,348.75
2023-03-03T09:11:52.898Z,348.75
2023-03-03T09:12:52.865Z,354.38
2023-03-03T09:13:52.881Z,393.75
2023-03-03T09:14:52.821Z,416.25
2023-03-03T09:15:52.821Z,416.25
2023-03-03T09:16:52.783Z,405.00
2023-03-03T09:17:52.766Z,393.75
2023-03-03T09:18:52.715Z,405.00
2023-03-03T09:19:52.697Z,416.25
2023-03-03T09:20:52.702Z,444.38
2023-03-03T09:21:52.648Z,478.13
2023-03-03T09:22:52.622Z,495.00
2023-03-03T09:23:52.609Z,517.50
2023-03-03T09:24:52.620Z,528.75
2023-03-03T09:25:52.579Z,511.88
2023-03-03T09:26:52.529Z,466.88
2023-03-03T09:27:52.563Z,466.88
2023-03-03T09:28:52.483Z,455.63
2023-03-03T09:29:52.478Z,433.13
2023-03-03T09:30:52.431Z,438.75
2023-03-03T09:31:52.514Z,466.88
2023-03-03T09:32:52.376Z,455.63
2023-03-03T09:33:52.428Z,444.38
2023-03-03T09:34:52.339Z,399.38
2023-03-03T09:35:52.362Z,444.38
2023-03-03T09:36:52.278Z,410.63
2023-03-03T09:37:52.252Z,495.00
2023-03-03T09:38:52.221Z,489.38
2023-03-03T09:39:52.228Z,495.00
2023-03-03T09:40:52.198Z,455.63
2023-03-03T09:41:52.196Z,405.00
2023-03-03T09:42:52.123Z,388.13
2023-03-03T09:43:52.112Z,399.38
2023-03-03T09:44:52.097Z,376.88
2023-03-03T09:45:52.143Z,376.88
2023-03-03T09:46:52.151Z,371.25
2023-03-03T09:47:52.025Z,343.13
2023-03-03T09:48:51.982Z,348.75
2023-03-03T09:49:51.971Z,360.00
2023-03-03T09:50:51.943Z,320.63
2023-03-03T09:51:51.915Z,348.75
2023-03-03T09:52:51.900Z,371.25
2023-03-03T09:53:51.888Z,371.25
2023-03-03T09:54:51.845Z,371.25
2023-03-03T09:55:51.826Z,371.25
2023-03-03T09:56:51.792Z,337.50
2023-03-03T09:58:04.460Z,371.25
2023-03-03T09:58:51.770Z,371.25
2023-03-03T09:59:51.728Z,326.25
2023-03-03T10:00:51.735Z,376.88
2023-03-03T10:01:51.683Z,388.13
2023-03-03T10:02:53.479Z,354.38
2023-03-03T10:03:51.881Z,343.13
2023-03-03T10:04:52.229Z,348.75
2023-03-03T10:05:51.584Z,421.88
2023-03-03T10:06:51.547Z,399.38
2023-03-03T10:07:51.555Z,433.13
2023-03-03T10:08:51.516Z,416.25
2023-03-03T10:09:51.851Z,354.38
2023-03-03T10:10:51.477Z,320.63
2023-03-03T10:11:51.433Z,326.25
2023-03-03T10:12:51.400Z,354.38
2023-03-03T10:13:51.757Z,399.38
2023-03-03T10:14:51.804Z,416.25
2023-03-03T10:15:51.336Z,405.00
2023-03-03T10:16:51.879Z,427.50
2023-03-03T10:17:51.299Z,421.88
2023-03-03T10:18:51.277Z,455.63
2023-03-03T10:19:51.376Z,461.25
2023-03-03T10:20:53.183Z,461.25
2023-03-03T10:21:51.552Z,500.63
2023-03-03T10:22:51.707Z,517.50
2023-03-03T10:23:51.149Z,517.50
2023-03-03T10:24:51.150Z,517.50
2023-03-03T10:25:51.108Z,511.88
2023-03-03T10:27:09.912Z,506.25
2023-03-03T10:27:51.379Z,517.50
2023-03-03T10:28:51.022Z,534.38
2023-03-03T10:29:51.010Z,551.25
2023-03-03T10:31:04.120Z,540.00
2023-03-03T10:31:51.027Z,568.13
2023-03-03T10:32:51.139Z,585.00
2023-03-03T10:33:51.049Z,596.25
2023-03-03T10:34:50.889Z,596.25
2023-03-03T10:36:05.987Z,590.63
2023-03-03T10:36:50.839Z,596.25
2023-03-03T10:37:50.834Z,596.25
2023-03-03T10:38:50.788Z,624.38
2023-03-03T10:39:50.792Z,618.75
2023-03-03T10:40:50.769Z,635.63
2023-03-03T10:41:50.765Z,652.50
2023-03-03T10:42:50.707Z,663.75
2023-03-03T10:43:50.688Z,658.13
2023-03-03T10:44:50.661Z,652.50
2023-03-03T10:45:50.764Z,646.88
2023-03-03T10:46:50.627Z,663.75
2023-03-03T10:47:50.605Z,658.13
2023-03-03T10:48:50.620Z,669.38
2023-03-03T10:49:50.561Z,686.25
2023-03-03T10:50:50.544Z,686.25
2023-03-03T10:51:50.510Z,697.50
2023-03-03T10:52:50.493Z,708.75
2023-03-03T10:53:50.466Z,703.13
2023-03-03T10:54:50.443Z,703.13
2023-03-03T10:55:50.436Z,534.38
2023-03-03T10:56:53.274Z,731.25
2023-03-03T10:57:50.380Z,748.13
2023-03-03T10:58:50.435Z,725.63
2023-03-03T10:59:50.339Z,776.25
2023-03-03T11:00:50.359Z,776.25
2023-03-03T11:01:50.305Z,787.50
2023-03-03T11:02:50.315Z,793.13
2023-03-03T11:03:50.285Z,793.13
2023-03-03T11:04:50.238Z,804.38
2023-03-03T11:05:50.253Z,815.63
2023-03-03T11:06:50.204Z,810.00
2023-03-03T11:07:50.176Z,810.00
2023-03-03T11:08:50.175Z,810.00
2023-03-03T11:09:50.152Z,810.00
2023-03-03T11:10:50.120Z,804.38
2023-03-03T11:11:50.102Z,821.25
2023-03-03T11:12:50.081Z,832.50
2023-03-03T11:13:50.071Z,832.50
2023-03-03T11:14:50.041Z,810.00
2023-03-03T11:15:50.041Z,821.25
2023-03-03T11:16:50.082Z,843.75
2023-03-03T11:17:49.996Z,849.38
2023-03-03T11:18:49.972Z,838.13
2023-03-03T11:19:49.964Z,855.00
2023-03-03T11:20:49.949Z,849.38
2023-03-03T11:21:49.920Z,855.00
2023-03-03T11:22:49.881Z,821.25
2023-03-03T11:23:49.870Z,855.00
2023-03-03T11:24:49.847Z,860.63
2023-03-03T11:25:49.845Z,860.63
2023-03-03T11:26:49.820Z,849.38
2023-03-03T11:27:49.795Z,838.13
2023-03-03T11:28:49.778Z,855.00
2023-03-03T11:29:49.763Z,855.00
2023-03-03T11:30:49.785Z,855.00
2023-03-03T11:31:49.717Z,855.00
2023-03-03T11:32:49.710Z,849.38
2023-03-03T11:33:49.692Z,843.75
2023-03-03T11:34:49.670Z,855.00
2023-03-03T11:35:49.724Z,849.38
2023-03-03T11:36:49.643Z,855.00
2023-03-03T11:37:49.646Z,855.00
2023-03-03T11:38:49.603Z,860.63
2023-03-03T11:39:49.575Z,860.63
2023-03-03T11:40:49.571Z,871.88
2023-03-03T11:41:49.553Z,871.88
2023-03-03T11:42:49.554Z,877.50
2023-03-03T11:43:49.517Z,877.50
2023-03-03T11:44:49.506Z,883.13
2023-03-03T11:45:49.600Z,877.50
2023-03-03T11:46:49.488Z,894.38
2023-03-03T11:47:49.436Z,888.75
2023-03-03T11:48:49.430Z,894.38
2023-03-03T11:49:49.415Z,900.00
2023-03-03T11:50:49.385Z,900.00
2023-03-03T11:51:49.376Z,905.63
2023-03-03T11:52:49.366Z,905.63
2023-03-03T11:53:49.368Z,911.25
2023-03-03T11:54:49.325Z,916.88
2023-03-03T11:55:49.361Z,922.50
2023-03-03T11:56:49.316Z,922.50
2023-03-03T11:57:49.260Z,933.75
2023-03-03T11:58:49.273Z,933.75
2023-03-03T11:59:49.260Z,939.38
2023-03-03T12:00:49.220Z,933.75
2023-03-03T12:01:49.203Z,928.13
2023-03-03T12:02:49.302Z,939.38
2023-03-03T12:03:49.173Z,939.38
2023-03-03T12:04:49.173Z,945.00
2023-03-03T12:05:49.161Z,939.38
2023-03-03T12:06:49.124Z,928.13
2023-03-03T12:07:49.113Z,939.38
2023-03-03T12:08:49.173Z,939.38
2023-03-03T12:09:49.094Z,939.38
2023-03-03T12:10:49.059Z,950.63
2023-03-03T12:11:49.060Z,933.75
2023-03-03T12:12:49.044Z,928.13
2023-03-03T12:13:49.024Z,933.75
2023-03-03T12:14:49.000Z,967.50
2023-03-03T12:15:49.030Z,967.50
2023-03-03T12:16:48.953Z,978.75
2023-03-03T12:17:50.663Z,978.75
2023-03-03T12:18:48.941Z,978.75
2023-03-03T12:19:48.963Z,984.38
2023-03-03T12:20:48.914Z,967.50
2023-03-03T12:21:48.872Z,961.88
2023-03-03T12:23:04.516Z,967.50
2023-03-03T12:23:48.868Z,961.88
2023-03-03T12:24:48.837Z,945.00
2023-03-03T12:25:48.813Z,950.63
2023-03-03T12:26:48.857Z,933.75
2023-03-03T12:27:48.777Z,939.38
2023-03-03T12:28:48.769Z,950.63
2023-03-03T12:29:48.773Z,950.63
2023-03-03T12:30:48.765Z,950.63
2023-03-03T12:31:48.718Z,950.63
2023-03-03T12:32:48.717Z,956.25
2023-03-03T12:33:48.693Z,945.00
2023-03-03T12:34:48.674Z,939.38
2023-03-03T12:35:50.709Z,945.00
2023-03-03T12:36:48.652Z,945.00
2023-03-03T12:37:48.635Z,945.00
2023-03-03T12:38:48.614Z,945.00
2023-03-03T12:39:48.621Z,939.38
2023-03-03T12:40:48.633Z,945.00
2023-03-03T12:41:48.560Z,945.00
2023-03-03T12:42:48.607Z,945.00
2023-03-03T12:43:48.539Z,939.38
2023-03-03T12:44:48.538Z,939.38
2023-03-03T12:45:48.509Z,933.75
2023-03-03T12:46:48.525Z,939.38
2023-03-03T12:47:48.476Z,939.38
2023-03-03T12:48:48.461Z,956.25
2023-03-03T12:49:57.764Z,961.88
2023-03-03T12:50:48.433Z,956.25
2023-03-03T12:51:48.404Z,961.88
2023-03-03T12:52:48.405Z,961.88